Eric Beaudoin 30:00 SkiErg

6,830

Meters

30:00.0

Time

2:11.7

Pace

402

Calories

124

Heart Rate

Average Watts153
Calories Per Hour804
Stroke Rate54
Stroke Count1623
Drag Factor119

August 19, 2026 17:53:00

Workout
SkiErg

Workout Type
Fixed Time

Verified
No

Ranked
No

Entered
ErgData iOS

Splits

Time Meters Pace Watts Cal/Hr Cal S/M
30:00.0 6,830 2:11.7 153 804 402 54 124
1:00.0 232 2:09.3 162 840 14 53 112
2:00.0 233 2:08.7 164 840 14 53 111
3:00.0 231 2:09.8 160 840 14 53 110
4:00.0 230 2:10.4 158 840 14 53 115
5:00.0 232 2:09.3 162 840 14 53 129
6:00.0 231 2:09.8 160 840 14 53 127
7:00.0 230 2:10.4 158 840 14 55 125
8:00.0 228 2:11.5 154 780 13 55 123
9:00.0 226 2:12.7 150 780 13 56 128
10:00.0 225 2:13.3 148 780 13 55 123
11:00.0 227 2:12.1 152 780 13 55 124
12:00.0 228 2:11.5 154 780 13 56 123
13:00.0 226 2:12.7 150 780 13 53 121
14:00.0 230 2:10.4 158 840 14 55 123
15:00.0 229 2:11.0 156 780 13 56 129
16:00.0 230 2:10.4 158 840 14 55 125
17:00.0 226 2:12.7 150 780 13 55 126
18:00.0 230 2:10.4 158 840 14 56 130
19:00.0 233 2:08.7 164 840 14 55 125
20:00.0 230 2:10.4 158 840 14 56 130
21:00.0 231 2:09.8 160 840 14 55 133
22:00.0 228 2:11.5 154 780 13 54 128
23:00.0 228 2:11.5 154 780 13 55 127
24:00.0 224 2:13.9 146 780 13 53 125
25:00.0 185 2:42.1 82 600 10 41 121
26:00.0 228 2:11.5 154 780 13 55 129
27:00.0 229 2:11.0 156 780 13 55 127
28:00.0 228 2:11.5 154 780 13 55 132
29:00.0 232 2:09.3 162 840 14 54 128
30:00.0 230 2:10.4 158 840 14 55 135

Click and drag on the graph to zoom in on a section.

Workout Graph

Loading data.